Aérodrome :
LOGIN :

S'inscrire | Disclaimer

   EN    FR    IT 

 










Légende :    VFR   VFR Marginal   IFR   IFR Intensif   IFR Très Intensif
Visi : 
Plafond : 
>= 8 km
>= 3000ft
5 à 8 km
1000 à 3000 ft
1500m à 5 km
500 à 1000 ft
800 à 1500m
200 à 500 ft
< 800m
< 200 ft
Symboles :   Orages  Brouillard  Fortes neiges  Fortes précipitations  Vent > 20 kt
SIGMETs :   Divers  Orages  Givrage  Turbulence  Onde Orograph.  Cendres Volcan.






- Altitude de l'aérodrome : 1966 ft
- Code IATA : SGE


EDGS - Siegerland

DERNIER METAR :
  • 280850Z VRB02KT 1400 R31/P2000N BR BCFG BKN002 OVC040 M01/M01 Q0994

METARs EXPIRÉS :
  • 280820Z 00000KT 0400 R31/0550N FZFG BKN001 M01/M01 Q0994
  • 280750Z VRB01KT 0200 R31/0700N FZFG VV/// M01/M01 Q0994
  • 280720Z AUTO 08003KT 0250 R31/0550N VV/// M01/M01 Q0994
  • 280650Z AUTO 04003KT 010V080 0400 R31/0700D VV/// M01/M01 Q0994
  • 280620Z AUTO 19004KT 170V230 0800 R31/1000U VV/// M01/M01 Q0993

TAF TAF EDGS
Valide du 28 à 09h jusqu'au 28 à 18h UTC


280820Z 2809/2818 VRB02KT 0300 FZFG OVC000
BECMG 2809/2811 3500 BR BKN003
BECMG 2811/2814 30005KT 8000 BKN007
TEMPO 2814/2818 2000 -SHSN BKN003TCU



MET'MAP, la Météo Aéronautique d'un coup d'oeil ! - Copyright ORBIFLY Décembre 2007 - Disclaimer

ORBIFLY MET'MAP TEAM :

Programmation & Développement : Alexandra Zaïnal
Sur une idée originale de : Baudouin d'Aumeries
Assistance à la programmation : Marc-Olivier Méhu
Soutien technique & logistique : Manuel Goepfert

Contact : metmap@orbifly.com




SOURCES & CREDITS :

   NOAA